sensor_id;sensor_type;location;lat;lon;timestamp;temperature;humidity
36818;DHT22;22761;51.542;16.450;2022-10-13T00:01:17;4.32;83.29
36818;DHT22;22761;51.542;16.450;2022-10-13T00:03:43;4.28;83.28
36818;DHT22;22761;51.542;16.450;2022-10-13T00:06:19;4.28;83.24
36818;DHT22;22761;51.542;16.450;2022-10-13T00:08:47;4.27;83.31
36818;DHT22;22761;51.542;16.450;2022-10-13T00:11:22;4.25;83.37
36818;DHT22;22761;51.542;16.450;2022-10-13T00:13:50;4.25;83.40
36818;DHT22;22761;51.542;16.450;2022-10-13T00:16:20;4.24;83.40
36818;DHT22;22761;51.542;16.450;2022-10-13T00:18:48;4.25;83.38
36818;DHT22;22761;51.542;16.450;2022-10-13T00:21:20;4.25;83.47
36818;DHT22;22761;51.542;16.450;2022-10-13T00:23:50;4.22;83.42
36818;DHT22;22761;51.542;16.450;2022-10-13T00:26:21;4.20;83.48
36818;DHT22;22761;51.542;16.450;2022-10-13T00:28:49;4.18;83.45
36818;DHT22;22761;51.542;16.450;2022-10-13T00:31:28;4.17;83.29
36818;DHT22;22761;51.542;16.450;2022-10-13T00:33:58;4.17;83.34
36818;DHT22;22761;51.542;16.450;2022-10-13T00:36:25;4.16;83.41
36818;DHT22;22761;51.542;16.450;2022-10-13T00:38:55;4.14;83.45
36818;DHT22;22761;51.542;16.450;2022-10-13T00:41:23;4.13;83.42
36818;DHT22;22761;51.542;16.450;2022-10-13T00:43:57;4.10;83.54
36818;DHT22;22761;51.542;16.450;2022-10-13T00:46:32;4.10;83.49
36818;DHT22;22761;51.542;16.450;2022-10-13T00:49:12;4.09;83.45
36818;DHT22;22761;51.542;16.450;2022-10-13T00:51:46;4.09;83.44
36818;DHT22;22761;51.542;16.450;2022-10-13T00:54:17;4.07;83.41
36818;DHT22;22761;51.542;16.450;2022-10-13T00:56:45;4.06;83.46
36818;DHT22;22761;51.542;16.450;2022-10-13T00:59:22;4.06;83.56
36818;DHT22;22761;51.542;16.450;2022-10-13T01:01:47;4.02;83.50
36818;DHT22;22761;51.542;16.450;2022-10-13T01:04:16;4.00;83.53
36818;DHT22;22761;51.542;16.450;2022-10-13T01:06:43;3.99;83.56
36818;DHT22;22761;51.542;16.450;2022-10-13T01:09:12;3.99;83.57
36818;DHT22;22761;51.542;16.450;2022-10-13T01:12:01;3.96;83.54
36818;DHT22;22761;51.542;16.450;2022-10-13T01:23:29;3.90;83.37
36818;DHT22;22761;51.542;16.450;2022-10-13T01:35:22;3.81;83.42
36818;DHT22;22761;51.542;16.450;2022-10-13T01:38:08;3.79;83.45
36818;DHT22;22761;51.542;16.450;2022-10-13T01:40:51;3.78;83.50
36818;DHT22;22761;51.542;16.450;2022-10-13T01:43:26;3.78;83.64
36818;DHT22;22761;51.542;16.450;2022-10-13T01:46:04;3.76;83.75
36818;DHT22;22761;51.542;16.450;2022-10-13T01:48:33;3.74;83.85
36818;DHT22;22761;51.542;16.450;2022-10-13T01:51:02;3.74;83.86
36818;DHT22;22761;51.542;16.450;2022-10-13T01:53:31;3.74;83.94
36818;DHT22;22761;51.542;16.450;2022-10-13T01:55:59;3.74;83.83
36818;DHT22;22761;51.542;16.450;2022-10-13T01:58:32;3.76;83.86
36818;DHT22;22761;51.542;16.450;2022-10-13T02:07:01;3.72;83.85
36818;DHT22;22761;51.542;16.450;2022-10-13T02:12:28;3.69;83.93
36818;DHT22;22761;51.542;16.450;2022-10-13T02:14:56;3.71;84.08
36818;DHT22;22761;51.542;16.450;2022-10-13T02:17:25;3.68;84.02
36818;DHT22;22761;51.542;16.450;2022-10-13T02:19:54;3.68;84.14
36818;DHT22;22761;51.542;16.450;2022-10-13T02:22:29;3.66;84.32
36818;DHT22;22761;51.542;16.450;2022-10-13T02:24:58;3.71;84.58
36818;DHT22;22761;51.542;16.450;2022-10-13T02:27:27;3.72;84.69
36818;DHT22;22761;51.542;16.450;2022-10-13T02:29:56;3.69;84.64
36818;DHT22;22761;51.542;16.450;2022-10-13T02:32:25;3.69;84.59
36818;DHT22;22761;51.542;16.450;2022-10-13T02:34:53;3.71;84.74
36818;DHT22;22761;51.542;16.450;2022-10-13T02:37:20;3.72;84.86
36818;DHT22;22761;51.542;16.450;2022-10-13T02:39:47;3.72;84.78
36818;DHT22;22761;51.542;16.450;2022-10-13T02:42:15;3.71;84.54
36818;DHT22;22761;51.542;16.450;2022-10-13T02:44:43;3.72;84.41
36818;DHT22;22761;51.542;16.450;2022-10-13T02:47:09;3.71;84.48
36818;DHT22;22761;51.542;16.450;2022-10-13T02:49:37;3.72;84.62
36818;DHT22;22761;51.542;16.450;2022-10-13T02:52:04;3.71;84.75
36818;DHT22;22761;51.542;16.450;2022-10-13T02:54:31;3.72;84.67
36818;DHT22;22761;51.542;16.450;2022-10-13T02:56:58;3.71;84.72
36818;DHT22;22761;51.542;16.450;2022-10-13T02:59:25;3.75;84.75
36818;DHT22;22761;51.542;16.450;2022-10-13T03:01:53;3.74;84.67
36818;DHT22;22761;51.542;16.450;2022-10-13T03:04:21;3.76;85.07
36818;DHT22;22761;51.542;16.450;2022-10-13T03:06:48;3.79;85.80
36818;DHT22;22761;51.542;16.450;2022-10-13T03:09:15;3.85;86.11
36818;DHT22;22761;51.542;16.450;2022-10-13T03:11:43;3.89;86.03
36818;DHT22;22761;51.542;16.450;2022-10-13T03:14:10;3.93;85.72
36818;DHT22;22761;51.542;16.450;2022-10-13T03:16:37;3.96;85.51
36818;DHT22;22761;51.542;16.450;2022-10-13T03:19:06;3.96;85.52
36818;DHT22;22761;51.542;16.450;2022-10-13T03:21:33;4.00;85.54
36818;DHT22;22761;51.542;16.450;2022-10-13T03:24:00;4.04;85.64
36818;DHT22;22761;51.542;16.450;2022-10-13T03:26:29;4.06;85.19
36818;DHT22;22761;51.542;16.450;2022-10-13T03:28:56;4.09;85.09
36818;DHT22;22761;51.542;16.450;2022-10-13T03:31:23;4.09;85.18
36818;DHT22;22761;51.542;16.450;2022-10-13T03:33:50;4.13;85.15
36818;DHT22;22761;51.542;16.450;2022-10-13T03:36:17;4.14;85.29
36818;DHT22;22761;51.542;16.450;2022-10-13T03:38:46;4.16;85.15
36818;DHT22;22761;51.542;16.450;2022-10-13T03:41:16;4.18;84.94
36818;DHT22;22761;51.542;16.450;2022-10-13T03:43:44;4.18;85.09
36818;DHT22;22761;51.542;16.450;2022-10-13T03:46:13;4.20;85.06
36818;DHT22;22761;51.542;16.450;2022-10-13T03:48:42;4.21;84.74
36818;DHT22;22761;51.542;16.450;2022-10-13T03:51:13;4.21;84.45
36818;DHT22;22761;51.542;16.450;2022-10-13T03:53:43;4.17;84.43
36818;DHT22;22761;51.542;16.450;2022-10-13T03:56:18;4.20;84.60
36818;DHT22;22761;51.542;16.450;2022-10-13T03:58:48;4.21;85.04
36818;DHT22;22761;51.542;16.450;2022-10-13T04:01:17;4.21;85.06
36818;DHT22;22761;51.542;16.450;2022-10-13T04:03:45;4.22;85.21
36818;DHT22;22761;51.542;16.450;2022-10-13T04:06:12;4.24;85.40
36818;DHT22;22761;51.542;16.450;2022-10-13T04:08:39;4.25;85.09
36818;DHT22;22761;51.542;16.450;2022-10-13T04:11:10;4.22;84.94
36818;DHT22;22761;51.542;16.450;2022-10-13T04:13:41;4.25;84.84
36818;DHT22;22761;51.542;16.450;2022-10-13T04:16:18;4.25;85.06
36818;DHT22;22761;51.542;16.450;2022-10-13T04:18:53;4.28;85.01
36818;DHT22;22761;51.542;16.450;2022-10-13T04:21:22;4.27;85.15
36818;DHT22;22761;51.542;16.450;2022-10-13T04:23:50;4.30;85.71
36818;DHT22;22761;51.542;16.450;2022-10-13T04:26:20;4.35;86.22
36818;DHT22;22761;51.542;16.450;2022-10-13T04:28:49;4.42;87.29
36818;DHT22;22761;51.542;16.450;2022-10-13T04:31:17;4.56;87.87
36818;DHT22;22761;51.542;16.450;2022-10-13T04:33:44;4.68;88.41
36818;DHT22;22761;51.542;16.450;2022-10-13T04:36:13;4.79;88.64
36818;DHT22;22761;51.542;16.450;2022-10-13T04:38:41;4.94;88.85
36818;DHT22;22761;51.542;16.450;2022-10-13T04:41:11;5.06;89.19
36818;DHT22;22761;51.542;16.450;2022-10-13T04:43:39;5.15;88.90
36818;DHT22;22761;51.542;16.450;2022-10-13T04:46:16;5.28;89.09
36818;DHT22;22761;51.542;16.450;2022-10-13T04:48:45;5.35;89.26
36818;DHT22;22761;51.542;16.450;2022-10-13T04:51:19;5.48;88.80
36818;DHT22;22761;51.542;16.450;2022-10-13T04:53:47;5.56;88.72
36818;DHT22;22761;51.542;16.450;2022-10-13T04:56:17;5.63;88.60
36818;DHT22;22761;51.542;16.450;2022-10-13T04:58:45;5.73;88.60
36818;DHT22;22761;51.542;16.450;2022-10-13T05:01:19;5.79;88.31
36818;DHT22;22761;51.542;16.450;2022-10-13T05:03:43;5.83;88.20
36818;DHT22;22761;51.542;16.450;2022-10-13T05:06:16;5.91;87.94
36818;DHT22;22761;51.542;16.450;2022-10-13T05:08:45;5.97;87.70
36818;DHT22;22761;51.542;16.450;2022-10-13T05:11:14;5.97;87.61
36818;DHT22;22761;51.542;16.450;2022-10-13T05:13:42;6.04;87.54
36818;DHT22;22761;51.542;16.450;2022-10-13T05:16:12;6.07;87.42
36818;DHT22;22761;51.542;16.450;2022-10-13T05:18:39;6.11;87.22
36818;DHT22;22761;51.542;16.450;2022-10-13T05:21:19;6.15;86.97
36818;DHT22;22761;51.542;16.450;2022-10-13T05:23:47;6.19;86.77
36818;DHT22;22761;51.542;16.450;2022-10-13T05:26:16;6.22;86.73
36818;DHT22;22761;51.542;16.450;2022-10-13T05:28:44;6.24;86.58
36818;DHT22;22761;51.542;16.450;2022-10-13T05:31:17;6.26;86.47
36818;DHT22;22761;51.542;16.450;2022-10-13T05:33:46;6.31;86.62
36818;DHT22;22761;51.542;16.450;2022-10-13T05:36:19;6.39;86.36
36818;DHT22;22761;51.542;16.450;2022-10-13T05:38:52;6.38;86.13
36818;DHT22;22761;51.542;16.450;2022-10-13T05:41:20;6.45;85.94
36818;DHT22;22761;51.542;16.450;2022-10-13T05:43:50;6.45;85.72
36818;DHT22;22761;51.542;16.450;2022-10-13T05:46:18;6.45;85.61
36818;DHT22;22761;51.542;16.450;2022-10-13T05:48:45;6.43;85.46
36818;DHT22;22761;51.542;16.450;2022-10-13T05:51:25;6.42;85.35
36818;DHT22;22761;51.542;16.450;2022-10-13T05:54:02;6.42;85.46
36818;DHT22;22761;51.542;16.450;2022-10-13T05:56:33;6.45;85.53
36818;DHT22;22761;51.542;16.450;2022-10-13T05:59:03;6.47;85.53
36818;DHT22;22761;51.542;16.450;2022-10-13T06:01:34;6.47;85.51
36818;DHT22;22761;51.542;16.450;2022-10-13T06:04:03;6.52;85.44
36818;DHT22;22761;51.542;16.450;2022-10-13T06:06:31;6.53;85.47
36818;DHT22;22761;51.542;16.450;2022-10-13T06:08:59;6.56;85.39
36818;DHT22;22761;51.542;16.450;2022-10-13T06:11:26;6.57;85.36
36818;DHT22;22761;51.542;16.450;2022-10-13T06:13:53;6.60;85.55
36818;DHT22;22761;51.542;16.450;2022-10-13T06:16:20;6.63;85.49
36818;DHT22;22761;51.542;16.450;2022-10-13T06:18:48;6.64;85.33
36818;DHT22;22761;51.542;16.450;2022-10-13T06:21:15;6.72;85.36
36818;DHT22;22761;51.542;16.450;2022-10-13T06:23:42;6.70;85.25
36818;DHT22;22761;51.542;16.450;2022-10-13T06:26:09;6.77;85.25
36818;DHT22;22761;51.542;16.450;2022-10-13T06:28:36;6.80;85.25
36818;DHT22;22761;51.542;16.450;2022-10-13T06:31:05;6.86;85.17
36818;DHT22;22761;51.542;16.450;2022-10-13T06:33:33;6.91;85.07
36818;DHT22;22761;51.542;16.450;2022-10-13T06:36:03;6.95;85.15
36818;DHT22;22761;51.542;16.450;2022-10-13T06:38:32;6.98;85.00
36818;DHT22;22761;51.542;16.450;2022-10-13T06:41:01;7.05;84.91
36818;DHT22;22761;51.542;16.450;2022-10-13T06:43:29;7.14;84.91
36818;DHT22;22761;51.542;16.450;2022-10-13T06:45:59;7.16;84.85
36818;DHT22;22761;51.542;16.450;2022-10-13T06:48:28;7.25;84.73
36818;DHT22;22761;51.542;16.450;2022-10-13T06:51:02;7.29;84.73
36818;DHT22;22761;51.542;16.450;2022-10-13T06:53:29;7.39;84.61
36818;DHT22;22761;51.542;16.450;2022-10-13T06:55:59;7.45;84.28
36818;DHT22;22761;51.542;16.450;2022-10-13T06:58:27;7.53;84.03
36818;DHT22;22761;51.542;16.450;2022-10-13T07:00:54;7.61;83.87
36818;DHT22;22761;51.542;16.450;2022-10-13T07:03:22;7.70;83.58
36818;DHT22;22761;51.542;16.450;2022-10-13T07:05:51;7.74;83.29
36818;DHT22;22761;51.542;16.450;2022-10-13T07:08:19;7.85;82.95
36818;DHT22;22761;51.542;16.450;2022-10-13T07:10:46;7.92;82.45
36818;DHT22;22761;51.542;16.450;2022-10-13T07:13:14;8.04;82.25
36818;DHT22;22761;51.542;16.450;2022-10-13T07:15:41;8.10;81.97
36818;DHT22;22761;51.542;16.450;2022-10-13T07:18:08;8.22;81.70
36818;DHT22;22761;51.542;16.450;2022-10-13T07:20:35;8.30;81.35
36818;DHT22;22761;51.542;16.450;2022-10-13T07:23:02;8.37;81.16
36818;DHT22;22761;51.542;16.450;2022-10-13T07:25:29;8.44;81.10
36818;DHT22;22761;51.542;16.450;2022-10-13T07:28:00;8.48;81.13
36818;DHT22;22761;51.542;16.450;2022-10-13T07:30:27;8.57;80.86
36818;DHT22;22761;51.542;16.450;2022-10-13T07:32:55;8.64;80.29
36818;DHT22;22761;51.542;16.450;2022-10-13T07:35:22;8.72;80.26
36818;DHT22;22761;51.542;16.450;2022-10-13T07:37:52;8.78;80.55
36818;DHT22;22761;51.542;16.450;2022-10-13T07:40:19;8.85;80.90
36818;DHT22;22761;51.542;16.450;2022-10-13T07:42:46;8.95;80.52
36818;DHT22;22761;51.542;16.450;2022-10-13T07:45:15;9.05;80.45
36818;DHT22;22761;51.542;16.450;2022-10-13T07:47:42;9.16;80.37
36818;DHT22;22761;51.542;16.450;2022-10-13T07:50:10;9.22;80.22
36818;DHT22;22761;51.542;16.450;2022-10-13T07:52:37;9.30;80.25
36818;DHT22;22761;51.542;16.450;2022-10-13T07:55:06;9.36;79.61
36818;DHT22;22761;51.542;16.450;2022-10-13T07:57:34;9.41;79.20
36818;DHT22;22761;51.542;16.450;2022-10-13T08:00:02;9.45;78.82
36818;DHT22;22761;51.542;16.450;2022-10-13T08:02:33;9.48;78.50
36818;DHT22;22761;51.542;16.450;2022-10-13T08:05:03;9.51;77.90
36818;DHT22;22761;51.542;16.450;2022-10-13T08:07:30;9.55;78.48
36818;DHT22;22761;51.542;16.450;2022-10-13T08:09:57;9.59;78.58
36818;DHT22;22761;51.542;16.450;2022-10-13T08:12:24;9.65;78.66
36818;DHT22;22761;51.542;16.450;2022-10-13T08:14:51;9.69;78.78
36818;DHT22;22761;51.542;16.450;2022-10-13T08:17:18;9.79;78.54
36818;DHT22;22761;51.542;16.450;2022-10-13T08:19:45;9.86;78.50
36818;DHT22;22761;51.542;16.450;2022-10-13T08:22:13;10.00;78.41
36818;DHT22;22761;51.542;16.450;2022-10-13T08:24:41;10.13;78.39
36818;DHT22;22761;51.542;16.450;2022-10-13T08:27:19;10.28;78.09
36818;DHT22;22761;51.542;16.450;2022-10-13T08:29:43;10.47;77.95
36818;DHT22;22761;51.542;16.450;2022-10-13T08:32:10;10.65;76.91
36818;DHT22;22761;51.542;16.450;2022-10-13T08:34:38;10.82;76.91
36818;DHT22;22761;51.542;16.450;2022-10-13T08:37:05;11.02;76.46
36818;DHT22;22761;51.542;16.450;2022-10-13T08:39:32;11.21;75.33
36818;DHT22;22761;51.542;16.450;2022-10-13T08:41:59;11.43;75.21
36818;DHT22;22761;51.542;16.450;2022-10-13T08:44:41;11.62;74.16
36818;DHT22;22761;51.542;16.450;2022-10-13T08:48:18;11.86;73.73
36818;DHT22;22761;51.542;16.450;2022-10-13T08:50:12;12.06;73.25
36818;DHT22;22761;51.542;16.450;2022-10-13T08:55:37;12.49;72.15
36818;DHT22;22761;51.542;16.450;2022-10-13T09:03:28;13.14;70.53
36818;DHT22;22761;51.542;16.450;2022-10-13T09:08:37;13.53;68.87
36818;DHT22;22761;51.542;16.450;2022-10-13T09:11:04;13.73;69.29
36818;DHT22;22761;51.542;16.450;2022-10-13T09:13:31;13.89;67.86
36818;DHT22;22761;51.542;16.450;2022-10-13T09:16:01;14.07;67.48
36818;DHT22;22761;51.542;16.450;2022-10-13T09:18:31;14.25;66.80
36818;DHT22;22761;51.542;16.450;2022-10-13T09:21:23;14.47;66.40
36818;DHT22;22761;51.542;16.450;2022-10-13T09:23:51;14.69;64.96
36818;DHT22;22761;51.542;16.450;2022-10-13T09:26:23;14.90;65.12
36818;DHT22;22761;51.542;16.450;2022-10-13T09:28:51;15.10;63.79
36818;DHT22;22761;51.542;16.450;2022-10-13T09:31:27;15.29;64.14
36818;DHT22;22761;51.542;16.450;2022-10-13T09:33:59;15.52;64.08
36818;DHT22;22761;51.542;16.450;2022-10-13T09:36:28;15.73;63.97
36818;DHT22;22761;51.542;16.450;2022-10-13T09:39:15;15.97;62.96
36818;DHT22;22761;51.542;16.450;2022-10-13T09:41:44;16.21;61.22
36818;DHT22;22761;51.542;16.450;2022-10-13T09:44:29;16.45;61.58
36818;DHT22;22761;51.542;16.450;2022-10-13T09:47:01;16.70;60.63
36818;DHT22;22761;51.542;16.450;2022-10-13T09:49:42;16.91;60.32
36818;DHT22;22761;51.542;16.450;2022-10-13T09:52:17;17.12;61.70
36818;DHT22;22761;51.542;16.450;2022-10-13T09:54:49;17.33;59.78
36818;DHT22;22761;51.542;16.450;2022-10-13T09:57:40;17.54;57.39
36818;DHT22;22761;51.542;16.450;2022-10-13T10:00:21;17.76;57.27
36818;DHT22;22761;51.542;16.450;2022-10-13T10:03:02;17.92;56.98
36818;DHT22;22761;51.542;16.450;2022-10-13T10:05:53;18.12;54.12
36818;DHT22;22761;51.542;16.450;2022-10-13T10:09:13;18.33;55.93
36818;DHT22;22761;51.542;16.450;2022-10-13T10:11:02;18.56;55.76
36818;DHT22;22761;51.542;16.450;2022-10-13T10:13:30;18.80;55.25
36818;DHT22;22761;51.542;16.450;2022-10-13T10:16:09;19.06;53.33
36818;DHT22;22761;51.542;16.450;2022-10-13T10:18:48;19.37;53.29
36818;DHT22;22761;51.542;16.450;2022-10-13T10:26:51;19.99;49.91
36818;DHT22;22761;51.542;16.450;2022-10-13T10:35:57;20.65;48.49
36818;DHT22;22761;51.542;16.450;2022-10-13T10:42:02;21.02;47.45
36818;DHT22;22761;51.542;16.450;2022-10-13T10:44:38;21.16;46.16
36818;DHT22;22761;51.542;16.450;2022-10-13T10:47:18;21.30;47.12
36818;DHT22;22761;51.542;16.450;2022-10-13T10:49:45;21.44;45.87
36818;DHT22;22761;51.542;16.450;2022-10-13T10:53:06;21.62;45.24
36818;DHT22;22761;51.542;16.450;2022-10-13T11:06:52;22.39;44.14
36818;DHT22;22761;51.542;16.450;2022-10-13T11:12:23;22.68;43.68
36818;DHT22;22761;51.542;16.450;2022-10-13T11:15:12;22.82;42.55
36818;DHT22;22761;51.542;16.450;2022-10-13T11:17:38;22.91;43.17
36818;DHT22;22761;51.542;16.450;2022-10-13T11:25:45;23.26;42.46
36818;DHT22;22761;51.542;16.450;2022-10-13T11:31:37;23.54;42.91
36818;DHT22;22761;51.542;16.450;2022-10-13T11:34:00;23.72;41.38
36818;DHT22;22761;51.542;16.450;2022-10-13T11:36:49;23.89;40.80
36818;DHT22;22761;51.542;16.450;2022-10-13T11:39:40;24.06;39.16
36818;DHT22;22761;51.542;16.450;2022-10-13T11:45:02;24.24;39.73
36818;DHT22;22761;51.542;16.450;2022-10-13T11:59:32;24.55;39.00
36818;DHT22;22761;51.542;16.450;2022-10-13T12:02:13;24.54;39.54
36818;DHT22;22761;51.542;16.450;2022-10-13T12:04:44;24.53;39.47
36818;DHT22;22761;51.542;16.450;2022-10-13T12:07:14;24.53;38.94
36818;DHT22;22761;51.542;16.450;2022-10-13T12:09:56;24.51;39.23
36818;DHT22;22761;51.542;16.450;2022-10-13T12:12:26;24.51;39.39
36818;DHT22;22761;51.542;16.450;2022-10-13T12:14:55;24.50;39.85
36818;DHT22;22761;51.542;16.450;2022-10-13T12:17:28;24.51;40.15
36818;DHT22;22761;51.542;16.450;2022-10-13T12:20:00;24.61;38.85
36818;DHT22;22761;51.542;16.450;2022-10-13T12:22:29;24.68;39.62
36818;DHT22;22761;51.542;16.450;2022-10-13T12:25:02;24.72;39.80
36818;DHT22;22761;51.542;16.450;2022-10-13T12:27:49;24.75;38.41
36818;DHT22;22761;51.542;16.450;2022-10-13T12:30:28;24.78;38.56
36818;DHT22;22761;51.542;16.450;2022-10-13T12:32:58;24.74;38.76
36818;DHT22;22761;51.542;16.450;2022-10-13T12:35:31;24.70;39.03
36818;DHT22;22761;51.542;16.450;2022-10-13T12:38:05;24.77;38.44
36818;DHT22;22761;51.542;16.450;2022-10-13T12:40:34;24.85;38.50
36818;DHT22;22761;51.542;16.450;2022-10-13T12:43:03;24.86;38.09
36818;DHT22;22761;51.542;16.450;2022-10-13T12:45:31;24.86;39.16
36818;DHT22;22761;51.542;16.450;2022-10-13T12:47:59;24.88;38.76
36818;DHT22;22761;51.542;16.450;2022-10-13T12:50:33;24.77;38.63
36818;DHT22;22761;51.542;16.450;2022-10-13T12:53:22;24.67;38.33
36818;DHT22;22761;51.542;16.450;2022-10-13T12:55:56;24.61;38.82
36818;DHT22;22761;51.542;16.450;2022-10-13T12:58:32;24.46;38.17
36818;DHT22;22761;51.542;16.450;2022-10-13T13:01:24;24.32;38.47
36818;DHT22;22761;51.542;16.450;2022-10-13T13:03:57;24.24;39.03
36818;DHT22;22761;51.542;16.450;2022-10-13T13:06:35;24.32;38.46
36818;DHT22;22761;51.542;16.450;2022-10-13T13:09:22;24.43;39.14
36818;DHT22;22761;51.542;16.450;2022-10-13T13:14:43;24.70;38.57
36818;DHT22;22761;51.542;16.450;2022-10-13T13:19:48;25.02;38.32
36818;DHT22;22761;51.542;16.450;2022-10-13T13:22:16;24.90;38.40
36818;DHT22;22761;51.542;16.450;2022-10-13T13:24:44;24.70;38.32
36818;DHT22;22761;51.542;16.450;2022-10-13T13:27:23;24.40;38.92
36818;DHT22;22761;51.542;16.450;2022-10-13T13:29:56;24.02;38.97
36818;DHT22;22761;51.542;16.450;2022-10-13T13:32:23;23.65;40.53
36818;DHT22;22761;51.542;16.450;2022-10-13T13:34:51;23.38;40.41
36818;DHT22;22761;51.542;16.450;2022-10-13T13:37:37;23.19;40.74
36818;DHT22;22761;51.542;16.450;2022-10-13T13:40:16;23.07;41.30
36818;DHT22;22761;51.542;16.450;2022-10-13T13:42:43;23.05;41.36
36818;DHT22;22761;51.542;16.450;2022-10-13T13:45:15;23.19;41.93
36818;DHT22;22761;51.542;16.450;2022-10-13T13:47:43;23.47;42.10
36818;DHT22;22761;51.542;16.450;2022-10-13T13:52:51;23.95;41.29
36818;DHT22;22761;51.542;16.450;2022-10-13T13:55:18;24.06;40.23
36818;DHT22;22761;51.542;16.450;2022-10-13T13:57:45;24.26;39.38
36818;DHT22;22761;51.542;16.450;2022-10-13T14:00:14;24.42;39.21
36818;DHT22;22761;51.542;16.450;2022-10-13T14:02:42;24.51;38.43
36818;DHT22;22761;51.542;16.450;2022-10-13T14:05:10;24.60;38.71
36818;DHT22;22761;51.542;16.450;2022-10-13T14:07:38;24.61;38.10
36818;DHT22;22761;51.542;16.450;2022-10-13T14:10:07;24.62;38.76
36818;DHT22;22761;51.542;16.450;2022-10-13T14:12:35;24.58;38.00
36818;DHT22;22761;51.542;16.450;2022-10-13T14:15:03;24.54;38.46
36818;DHT22;22761;51.542;16.450;2022-10-13T14:17:30;24.51;38.23
36818;DHT22;22761;51.542;16.450;2022-10-13T14:19:58;24.50;38.74
36818;DHT22;22761;51.542;16.450;2022-10-13T14:22:25;24.47;38.86
36818;DHT22;22761;51.542;16.450;2022-10-13T14:24:52;24.44;39.30
36818;DHT22;22761;51.542;16.450;2022-10-13T14:27:19;24.34;39.83
36818;DHT22;22761;51.542;16.450;2022-10-13T14:29:47;24.26;38.88
36818;DHT22;22761;51.542;16.450;2022-10-13T14:32:15;24.15;38.60
36818;DHT22;22761;51.542;16.450;2022-10-13T14:34:42;24.13;38.84
36818;DHT22;22761;51.542;16.450;2022-10-13T14:37:09;24.02;39.23
36818;DHT22;22761;51.542;16.450;2022-10-13T14:39:36;23.91;39.79
36818;DHT22;22761;51.542;16.450;2022-10-13T14:42:03;23.77;40.18
36818;DHT22;22761;51.542;16.450;2022-10-13T14:44:31;23.62;39.51
36818;DHT22;22761;51.542;16.450;2022-10-13T14:46:58;23.43;41.18
36818;DHT22;22761;51.542;16.450;2022-10-13T14:49:25;23.16;40.82
36818;DHT22;22761;51.542;16.450;2022-10-13T14:51:52;22.86;41.43
36818;DHT22;22761;51.542;16.450;2022-10-13T14:54:19;22.56;44.17
36818;DHT22;22761;51.542;16.450;2022-10-13T14:56:46;22.20;44.84
36818;DHT22;22761;51.542;16.450;2022-10-13T14:59:13;21.84;45.68
36818;DHT22;22761;51.542;16.450;2022-10-13T15:01:42;21.46;47.12
36818;DHT22;22761;51.542;16.450;2022-10-13T15:04:09;21.15;47.99
36818;DHT22;22761;51.542;16.450;2022-10-13T15:06:37;20.82;48.65
36818;DHT22;22761;51.542;16.450;2022-10-13T15:09:06;20.50;49.67
36818;DHT22;22761;51.542;16.450;2022-10-13T15:11:34;20.20;50.20
36818;DHT22;22761;51.542;16.450;2022-10-13T15:14:01;19.86;51.34
36818;DHT22;22761;51.542;16.450;2022-10-13T15:16:30;19.53;52.50
36818;DHT22;22761;51.542;16.450;2022-10-13T15:19:03;19.21;53.17
36818;DHT22;22761;51.542;16.450;2022-10-13T15:21:30;18.85;54.17
36818;DHT22;22761;51.542;16.450;2022-10-13T15:23:58;18.53;54.67
36818;DHT22;22761;51.542;16.450;2022-10-13T15:26:25;18.19;55.48
36818;DHT22;22761;51.542;16.450;2022-10-13T15:28:52;17.88;56.25
36818;DHT22;22761;51.542;16.450;2022-10-13T15:31:21;17.60;57.30
36818;DHT22;22761;51.542;16.450;2022-10-13T15:33:51;17.33;57.58
36818;DHT22;22761;51.542;16.450;2022-10-13T15:36:21;17.02;58.32
36818;DHT22;22761;51.542;16.450;2022-10-13T15:38:50;16.77;59.21
36818;DHT22;22761;51.542;16.450;2022-10-13T15:41:17;16.52;59.84
36818;DHT22;22761;51.542;16.450;2022-10-13T15:43:45;16.28;60.75
36818;DHT22;22761;51.542;16.450;2022-10-13T15:46:15;16.04;61.16
36818;DHT22;22761;51.542;16.450;2022-10-13T15:48:44;15.78;62.01
36818;DHT22;22761;51.542;16.450;2022-10-13T15:51:15;15.56;62.88
36818;DHT22;22761;51.542;16.450;2022-10-13T15:53:43;15.34;63.38
36818;DHT22;22761;51.542;16.450;2022-10-13T15:56:10;15.17;64.09
36818;DHT22;22761;51.542;16.450;2022-10-13T15:58:37;14.98;64.48
36818;DHT22;22761;51.542;16.450;2022-10-13T16:01:09;14.77;65.35
36818;DHT22;22761;51.542;16.450;2022-10-13T16:03:37;14.60;65.61
36818;DHT22;22761;51.542;16.450;2022-10-13T16:06:08;14.43;66.05
36818;DHT22;22761;51.542;16.450;2022-10-13T16:08:40;14.27;67.01
36818;DHT22;22761;51.542;16.450;2022-10-13T16:11:12;14.14;67.65
36818;DHT22;22761;51.542;16.450;2022-10-13T16:13:46;14.01;68.25
36818;DHT22;22761;51.542;16.450;2022-10-13T16:16:14;13.89;69.13
36818;DHT22;22761;51.542;16.450;2022-10-13T16:18:43;13.83;69.63
36818;DHT22;22761;51.542;16.450;2022-10-13T16:21:16;13.75;70.37
36818;DHT22;22761;51.542;16.450;2022-10-13T16:23:44;13.66;70.51
36818;DHT22;22761;51.542;16.450;2022-10-13T16:26:12;13.58;71.09
36818;DHT22;22761;51.542;16.450;2022-10-13T16:28:39;13.52;71.39
36818;DHT22;22761;51.542;16.450;2022-10-13T16:31:10;13.42;71.68
36818;DHT22;22761;51.542;16.450;2022-10-13T16:33:43;13.35;71.73
36818;DHT22;22761;51.542;16.450;2022-10-13T16:36:15;13.27;71.80
36818;DHT22;22761;51.542;16.450;2022-10-13T16:38:45;13.17;72.16
36818;DHT22;22761;51.542;16.450;2022-10-13T16:41:15;13.10;72.06
36818;DHT22;22761;51.542;16.450;2022-10-13T16:43:44;13.00;72.07
36818;DHT22;22761;51.542;16.450;2022-10-13T16:46:14;12.92;72.61
36818;DHT22;22761;51.542;16.450;2022-10-13T16:48:43;12.78;72.68
36818;DHT22;22761;51.542;16.450;2022-10-13T16:51:15;12.72;72.78
36818;DHT22;22761;51.542;16.450;2022-10-13T16:53:49;12.61;73.01
36818;DHT22;22761;51.542;16.450;2022-10-13T16:56:18;12.48;73.14
36818;DHT22;22761;51.542;16.450;2022-10-13T16:58:48;12.38;71.29
36818;DHT22;22761;51.542;16.450;2022-10-13T17:01:17;12.30;73.26
36818;DHT22;22761;51.542;16.450;2022-10-13T17:03:45;12.21;73.45
36818;DHT22;22761;51.542;16.450;2022-10-13T17:06:14;12.10;73.76
36818;DHT22;22761;51.542;16.450;2022-10-13T17:08:42;12.03;74.27
36818;DHT22;22761;51.542;16.450;2022-10-13T17:11:16;11.96;74.57
36818;DHT22;22761;51.542;16.450;2022-10-13T17:13:43;11.88;74.96
36818;DHT22;22761;51.542;16.450;2022-10-13T17:16:11;11.83;75.63
36818;DHT22;22761;51.542;16.450;2022-10-13T17:18:41;11.79;75.72
36818;DHT22;22761;51.542;16.450;2022-10-13T17:21:12;11.73;76.41
36818;DHT22;22761;51.542;16.450;2022-10-13T17:23:40;11.71;76.64